sensor_id;sensor_type;location;lat;lon;timestamp;pressure;altitude;pressure_sealevel;temperature;humidity
10008;BME280;5043;41.766;26.204;2023-05-23T00:00:20;100582.19;;;15.55;100.00
10008;BME280;5043;41.766;26.204;2023-05-23T00:02:46;100599.84;;;15.37;100.00
10008;BME280;5043;41.766;26.204;2023-05-23T00:05:12;100535.69;;;15.13;100.00
10008;BME280;5043;41.766;26.204;2023-05-23T00:07:39;100586.69;;;15.45;100.00
10008;BME280;5043;41.766;26.204;2023-05-23T00:10:05;100607.94;;;15.36;100.00
10008;BME280;5043;41.766;26.204;2023-05-23T00:12:31;100601.91;;;15.43;100.00
10008;BME280;5043;41.766;26.204;2023-05-23T00:14:58;100585.44;;;15.30;100.00
10008;BME280;5043;41.766;26.204;2023-05-23T00:17:23;100583.06;;;15.37;100.00
10008;BME280;5043;41.766;26.204;2023-05-23T00:19:49;100539.34;;;15.12;100.00
10008;BME280;5043;41.766;26.204;2023-05-23T00:22:15;100587.69;;;15.44;100.00
10008;BME280;5043;41.766;26.204;2023-05-23T00:24:42;100605.16;;;15.37;100.00
10008;BME280;5043;41.766;26.204;2023-05-23T00:27:08;100591.47;;;15.32;100.00
10008;BME280;5043;41.766;26.204;2023-05-23T00:29:33;100542.81;;;15.03;100.00
10008;BME280;5043;41.766;26.204;2023-05-23T00:31:58;100592.31;;;15.23;100.00
10008;BME280;5043;41.766;26.204;2023-05-23T00:34:24;100584.91;;;15.17;100.00
10008;BME280;5043;41.766;26.204;2023-05-23T00:36:49;100581.00;;;15.21;100.00
10008;BME280;5043;41.766;26.204;2023-05-23T00:39:15;100554.03;;;14.97;100.00
10008;BME280;5043;41.766;26.204;2023-05-23T00:41:50;100525.25;;;14.83;100.00
10008;BME280;5043;41.766;26.204;2023-05-23T00:44:16;100517.56;;;14.70;100.00
10008;BME280;5043;41.766;26.204;2023-05-23T00:46:44;100581.13;;;15.10;100.00
10008;BME280;5043;41.766;26.204;2023-05-23T00:49:11;100602.13;;;15.03;100.00
10008;BME280;5043;41.766;26.204;2023-05-23T00:51:37;100574.00;;;15.01;100.00
10008;BME280;5043;41.766;26.204;2023-05-23T00:54:06;100580.88;;;15.03;100.00
10008;BME280;5043;41.766;26.204;2023-05-23T00:56:31;100533.06;;;14.75;100.00
10008;BME280;5043;41.766;26.204;2023-05-23T00:58:58;100564.66;;;14.87;100.00
10008;BME280;5043;41.766;26.204;2023-05-23T01:01:25;100555.31;;;14.83;100.00
10008;BME280;5043;41.766;26.204;2023-05-23T01:03:51;100503.75;;;14.48;100.00
10008;BME280;5043;41.766;26.204;2023-05-23T01:06:17;100568.03;;;14.80;100.00
10008;BME280;5043;41.766;26.204;2023-05-23T01:08:43;100574.59;;;14.76;100.00
10008;BME280;5043;41.766;26.204;2023-05-23T01:11:29;100553.78;;;14.71;100.00
10008;BME280;5043;41.766;26.204;2023-05-23T01:14:06;100559.25;;;14.79;100.00
10008;BME280;5043;41.766;26.204;2023-05-23T01:16:40;100502.78;;;14.49;100.00
10008;BME280;5043;41.766;26.204;2023-05-23T01:19:50;100558.25;;;14.80;100.00
10008;BME280;5043;41.766;26.204;2023-05-23T01:25:37;100507.25;;;14.48;100.00
10008;BME280;5043;41.766;26.204;2023-05-23T01:28:04;100502.91;;;14.37;100.00
10008;BME280;5043;41.766;26.204;2023-05-23T01:30:34;100547.19;;;14.66;100.00
10008;BME280;5043;41.766;26.204;2023-05-23T01:33:02;100571.09;;;14.75;100.00
10008;BME280;5043;41.766;26.204;2023-05-23T01:35:30;100538.28;;;14.67;100.00
10008;BME280;5043;41.766;26.204;2023-05-23T01:37:56;100538.81;;;14.61;100.00
10008;BME280;5043;41.766;26.204;2023-05-23T01:40:22;100546.50;;;14.64;100.00
10008;BME280;5043;41.766;26.204;2023-05-23T01:42:49;100545.38;;;14.47;100.00
10008;BME280;5043;41.766;26.204;2023-05-23T01:45:15;100556.84;;;14.67;100.00
10008;BME280;5043;41.766;26.204;2023-05-23T01:47:42;100551.28;;;14.60;100.00
10008;BME280;5043;41.766;26.204;2023-05-23T01:50:09;100568.00;;;14.61;100.00
10008;BME280;5043;41.766;26.204;2023-05-23T01:52:35;100565.78;;;14.56;100.00
10008;BME280;5043;41.766;26.204;2023-05-23T01:55:04;100555.72;;;14.60;100.00
10008;BME280;5043;41.766;26.204;2023-05-23T01:57:35;100553.94;;;14.70;100.00
10008;BME280;5043;41.766;26.204;2023-05-23T02:00:03;100551.66;;;14.75;100.00
10008;BME280;5043;41.766;26.204;2023-05-23T02:02:31;100563.28;;;14.74;100.00
10008;BME280;5043;41.766;26.204;2023-05-23T02:04:57;100556.59;;;14.70;100.00
10008;BME280;5043;41.766;26.204;2023-05-23T02:07:22;100516.06;;;14.39;100.00
10008;BME280;5043;41.766;26.204;2023-05-23T02:09:48;100568.31;;;14.77;100.00
10008;BME280;5043;41.766;26.204;2023-05-23T02:12:14;100546.78;;;14.61;100.00
10008;BME280;5043;41.766;26.204;2023-05-23T02:14:39;100520.53;;;14.48;100.00
10008;BME280;5043;41.766;26.204;2023-05-23T02:17:07;100580.06;;;14.74;100.00
10008;BME280;5043;41.766;26.204;2023-05-23T02:19:34;100560.47;;;14.75;100.00
10008;BME280;5043;41.766;26.204;2023-05-23T02:22:00;100564.56;;;14.70;100.00
10008;BME280;5043;41.766;26.204;2023-05-23T02:24:25;100578.94;;;14.77;100.00
10008;BME280;5043;41.766;26.204;2023-05-23T02:26:51;100512.28;;;14.51;100.00
10008;BME280;5043;41.766;26.204;2023-05-23T02:29:17;100564.13;;;14.84;100.00
10008;BME280;5043;41.766;26.204;2023-05-23T02:31:42;100535.88;;;14.64;100.00
10008;BME280;5043;41.766;26.204;2023-05-23T02:34:08;100586.91;;;14.77;100.00
10008;BME280;5043;41.766;26.204;2023-05-23T02:36:34;100573.06;;;14.83;100.00
10008;BME280;5043;41.766;26.204;2023-05-23T02:39:02;100569.44;;;14.84;100.00
10008;BME280;5043;41.766;26.204;2023-05-23T02:41:27;100590.66;;;14.93;100.00
10008;BME280;5043;41.766;26.204;2023-05-23T02:43:53;100570.56;;;14.91;100.00
10008;BME280;5043;41.766;26.204;2023-05-23T02:46:19;100569.13;;;14.87;100.00
10008;BME280;5043;41.766;26.204;2023-05-23T02:48:44;100570.66;;;14.99;100.00
10008;BME280;5043;41.766;26.204;2023-05-23T02:51:10;100590.81;;;14.92;100.00
10008;BME280;5043;41.766;26.204;2023-05-23T02:53:35;100571.66;;;14.98;100.00
10008;BME280;5043;41.766;26.204;2023-05-23T02:56:00;100599.47;;;14.94;100.00
10008;BME280;5043;41.766;26.204;2023-05-23T02:58:26;100566.06;;;14.91;100.00
10008;BME280;5043;41.766;26.204;2023-05-23T03:00:51;100572.63;;;15.06;100.00
10008;BME280;5043;41.766;26.204;2023-05-23T03:03:17;100587.56;;;15.07;100.00
10008;BME280;5043;41.766;26.204;2023-05-23T03:05:42;100557.53;;;14.97;100.00
10008;BME280;5043;41.766;26.204;2023-05-23T03:08:08;100577.94;;;15.06;100.00
10008;BME280;5043;41.766;26.204;2023-05-23T03:10:33;100579.59;;;15.07;100.00
10008;BME280;5043;41.766;26.204;2023-05-23T03:12:59;100579.75;;;15.06;100.00
10008;BME280;5043;41.766;26.204;2023-05-23T03:15:24;100581.97;;;15.10;100.00
10008;BME280;5043;41.766;26.204;2023-05-23T03:17:49;100601.84;;;15.16;100.00
10008;BME280;5043;41.766;26.204;2023-05-23T03:20:15;100579.31;;;15.20;100.00
10008;BME280;5043;41.766;26.204;2023-05-23T03:22:40;100560.88;;;15.09;100.00
10008;BME280;5043;41.766;26.204;2023-05-23T03:25:08;100545.34;;;15.04;100.00
10008;BME280;5043;41.766;26.204;2023-05-23T03:27:33;100548.97;;;15.13;100.00
10008;BME280;5043;41.766;26.204;2023-05-23T03:29:59;100524.84;;;14.78;100.00
10008;BME280;5043;41.766;26.204;2023-05-23T03:32:24;100587.25;;;15.30;100.00
10008;BME280;5043;41.766;26.204;2023-05-23T03:34:50;100609.66;;;15.27;100.00
10008;BME280;5043;41.766;26.204;2023-05-23T03:37:15;100598.31;;;15.25;100.00
10008;BME280;5043;41.766;26.204;2023-05-23T03:39:40;100574.66;;;15.32;100.00
10008;BME280;5043;41.766;26.204;2023-05-23T03:42:06;100535.16;;;15.09;100.00
10008;BME280;5043;41.766;26.204;2023-05-23T03:44:31;100597.19;;;15.47;100.00
10008;BME280;5043;41.766;26.204;2023-05-23T03:46:57;100554.00;;;15.16;100.00
10008;BME280;5043;41.766;26.204;2023-05-23T03:49:22;100547.00;;;15.15;100.00
10008;BME280;5043;41.766;26.204;2023-05-23T03:51:47;100591.97;;;15.55;100.00
10008;BME280;5043;41.766;26.204;2023-05-23T03:54:13;100537.38;;;15.14;100.00
10008;BME280;5043;41.766;26.204;2023-05-23T03:56:38;100607.16;;;15.45;100.00
10008;BME280;5043;41.766;26.204;2023-05-23T03:59:04;100586.13;;;15.32;100.00
10008;BME280;5043;41.766;26.204;2023-05-23T04:01:29;100573.97;;;15.30;100.00
10008;BME280;5043;41.766;26.204;2023-05-23T04:03:55;100582.53;;;15.24;100.00
10008;BME280;5043;41.766;26.204;2023-05-23T04:06:20;100549.97;;;15.02;100.00
10008;BME280;5043;41.766;26.204;2023-05-23T04:08:47;100605.84;;;15.39;100.00
10008;BME280;5043;41.766;26.204;2023-05-23T04:11:12;100581.09;;;15.29;100.00
10008;BME280;5043;41.766;26.204;2023-05-23T04:13:38;100599.56;;;15.40;100.00
10008;BME280;5043;41.766;26.204;2023-05-23T04:16:03;100599.56;;;15.40;100.00
10008;BME280;5043;41.766;26.204;2023-05-23T04:18:30;100615.91;;;15.55;100.00
10008;BME280;5043;41.766;26.204;2023-05-23T04:20:58;100599.84;;;15.56;100.00
10008;BME280;5043;41.766;26.204;2023-05-23T04:23:23;100558.69;;;15.41;100.00
10008;BME280;5043;41.766;26.204;2023-05-23T04:25:49;100604.28;;;15.65;100.00
10008;BME280;5043;41.766;26.204;2023-05-23T04:28:15;100622.75;;;15.67;100.00
10008;BME280;5043;41.766;26.204;2023-05-23T04:30:42;100612.94;;;15.67;100.00
10008;BME280;5043;41.766;26.204;2023-05-23T04:33:07;100611.13;;;15.68;100.00
10008;BME280;5043;41.766;26.204;2023-05-23T04:35:34;100607.59;;;15.77;100.00
10008;BME280;5043;41.766;26.204;2023-05-23T04:38:03;100620.72;;;15.88;100.00
10008;BME280;5043;41.766;26.204;2023-05-23T04:40:29;100585.63;;;15.75;100.00
10008;BME280;5043;41.766;26.204;2023-05-23T04:42:55;100628.78;;;16.06;100.00
10008;BME280;5043;41.766;26.204;2023-05-23T04:45:21;100601.03;;;16.08;100.00
10008;BME280;5043;41.766;26.204;2023-05-23T04:47:47;100595.38;;;16.11;100.00
10008;BME280;5043;41.766;26.204;2023-05-23T04:50:12;100591.31;;;16.17;100.00
10008;BME280;5043;41.766;26.204;2023-05-23T04:52:41;100583.91;;;16.11;100.00
10008;BME280;5043;41.766;26.204;2023-05-23T04:55:07;100611.59;;;16.45;100.00
10008;BME280;5043;41.766;26.204;2023-05-23T04:57:35;100613.41;;;16.44;100.00
10008;BME280;5043;41.766;26.204;2023-05-23T05:00:02;100617.03;;;16.53;100.00
10008;BME280;5043;41.766;26.204;2023-05-23T05:02:31;100662.69;;;16.58;100.00
10008;BME280;5043;41.766;26.204;2023-05-23T05:04:59;100565.88;;;16.22;100.00
10008;BME280;5043;41.766;26.204;2023-05-23T05:07:25;100633.78;;;16.63;100.00
10008;BME280;5043;41.766;26.204;2023-05-23T05:09:50;100621.31;;;16.64;100.00
10008;BME280;5043;41.766;26.204;2023-05-23T05:12:15;100623.06;;;16.73;100.00
10008;BME280;5043;41.766;26.204;2023-05-23T05:14:41;100563.91;;;16.52;100.00
10008;BME280;5043;41.766;26.204;2023-05-23T05:17:06;100622.91;;;16.92;100.00
10008;BME280;5043;41.766;26.204;2023-05-23T05:19:32;100593.25;;;16.69;100.00
10008;BME280;5043;41.766;26.204;2023-05-23T05:21:58;100652.00;;;16.85;100.00
10008;BME280;5043;41.766;26.204;2023-05-23T05:24:24;100625.56;;;16.74;100.00
10008;BME280;5043;41.766;26.204;2023-05-23T05:26:49;100628.94;;;16.76;100.00
10008;BME280;5043;41.766;26.204;2023-05-23T05:29:15;100641.25;;;16.77;100.00
10008;BME280;5043;41.766;26.204;2023-05-23T05:31:41;100633.66;;;16.82;100.00
10008;BME280;5043;41.766;26.204;2023-05-23T05:34:07;100637.28;;;16.81;100.00
10008;BME280;5043;41.766;26.204;2023-05-23T05:36:33;100637.38;;;16.89;100.00
10008;BME280;5043;41.766;26.204;2023-05-23T05:38:58;100633.19;;;16.87;100.00
10008;BME280;5043;41.766;26.204;2023-05-23T05:41:23;100644.94;;;16.76;100.00
10008;BME280;5043;41.766;26.204;2023-05-23T05:43:49;100655.88;;;16.73;100.00
10008;BME280;5043;41.766;26.204;2023-05-23T05:46:14;100639.66;;;16.84;100.00
10008;BME280;5043;41.766;26.204;2023-05-23T05:48:40;100660.81;;;16.86;100.00
10008;BME280;5043;41.766;26.204;2023-05-23T05:51:05;100641.41;;;16.76;100.00
10008;BME280;5043;41.766;26.204;2023-05-23T05:53:31;100664.63;;;16.83;100.00
10008;BME280;5043;41.766;26.204;2023-05-23T05:55:56;100636.28;;;16.65;100.00
10008;BME280;5043;41.766;26.204;2023-05-23T05:58:21;100637.97;;;16.66;100.00
10008;BME280;5043;41.766;26.204;2023-05-23T06:00:47;100683.28;;;16.83;100.00
10008;BME280;5043;41.766;26.204;2023-05-23T06:03:13;100646.13;;;16.64;100.00
10008;BME280;5043;41.766;26.204;2023-05-23T06:05:40;100659.00;;;16.69;100.00
10008;BME280;5043;41.766;26.204;2023-05-23T06:08:05;100643.38;;;16.56;100.00
10008;BME280;5043;41.766;26.204;2023-05-23T06:10:30;100604.84;;;16.23;100.00
10008;BME280;5043;41.766;26.204;2023-05-23T06:12:57;100680.31;;;16.69;100.00
10008;BME280;5043;41.766;26.204;2023-05-23T06:15:23;100657.69;;;16.73;100.00
10008;BME280;5043;41.766;26.204;2023-05-23T06:17:48;100654.81;;;16.84;100.00
10008;BME280;5043;41.766;26.204;2023-05-23T06:20:14;100662.97;;;16.82;100.00
10008;BME280;5043;41.766;26.204;2023-05-23T06:22:39;100666.75;;;16.80;100.00
10008;BME280;5043;41.766;26.204;2023-05-23T06:25:05;100667.84;;;16.69;100.00
10008;BME280;5043;41.766;26.204;2023-05-23T06:27:31;100660.59;;;16.79;100.00
10008;BME280;5043;41.766;26.204;2023-05-23T06:29:57;100602.25;;;16.41;100.00
10008;BME280;5043;41.766;26.204;2023-05-23T06:32:23;100663.03;;;16.90;100.00
10008;BME280;5043;41.766;26.204;2023-05-23T06:34:48;100661.59;;;16.96;100.00
10008;BME280;5043;41.766;26.204;2023-05-23T06:37:14;100655.03;;;16.90;100.00
10008;BME280;5043;41.766;26.204;2023-05-23T06:39:40;100655.66;;;16.84;100.00
10008;BME280;5043;41.766;26.204;2023-05-23T06:42:06;100606.16;;;16.64;100.00
10008;BME280;5043;41.766;26.204;2023-05-23T06:44:32;100654.19;;;17.07;100.00
10008;BME280;5043;41.766;26.204;2023-05-23T06:46:58;100654.50;;;17.04;100.00
10008;BME280;5043;41.766;26.204;2023-05-23T06:49:25;100655.72;;;17.10;100.00
10008;BME280;5043;41.766;26.204;2023-05-23T06:51:51;100648.56;;;17.10;100.00
10008;BME280;5043;41.766;26.204;2023-05-23T06:54:18;100654.81;;;17.19;100.00
10008;BME280;5043;41.766;26.204;2023-05-23T06:56:44;100659.06;;;17.30;100.00
10008;BME280;5043;41.766;26.204;2023-05-23T06:59:10;100666.53;;;17.44;100.00
10008;BME280;5043;41.766;26.204;2023-05-23T07:01:36;100654.16;;;17.43;100.00
10008;BME280;5043;41.766;26.204;2023-05-23T07:04:02;100654.94;;;17.53;100.00
10008;BME280;5043;41.766;26.204;2023-05-23T07:06:28;100641.03;;;17.49;100.00
10008;BME280;5043;41.766;26.204;2023-05-23T07:08:53;100597.78;;;17.38;100.00
10008;BME280;5043;41.766;26.204;2023-05-23T07:11:20;100654.19;;;17.94;100.00
10008;BME280;5043;41.766;26.204;2023-05-23T07:13:46;100651.28;;;18.13;100.00
10008;BME280;5043;41.766;26.204;2023-05-23T07:16:13;100655.25;;;18.43;100.00
10008;BME280;5043;41.766;26.204;2023-05-23T07:18:39;100651.16;;;18.57;100.00
10008;BME280;5043;41.766;26.204;2023-05-23T07:21:05;100667.25;;;18.81;100.00
10008;BME280;5043;41.766;26.204;2023-05-23T07:23:33;100652.91;;;18.98;100.00
10008;BME280;5043;41.766;26.204;2023-05-23T07:26:00;100652.09;;;19.30;99.62
10008;BME280;5043;41.766;26.204;2023-05-23T07:28:27;100643.59;;;19.34;98.84
10008;BME280;5043;41.766;26.204;2023-05-23T07:30:53;100632.72;;;19.36;98.06
10008;BME280;5043;41.766;26.204;2023-05-23T07:33:21;100655.63;;;19.46;97.64
10008;BME280;5043;41.766;26.204;2023-05-23T07:35:47;100658.94;;;19.72;97.06
10008;BME280;5043;41.766;26.204;2023-05-23T07:38:13;100650.72;;;19.90;95.79
10008;BME280;5043;41.766;26.204;2023-05-23T07:40:39;100649.28;;;20.18;94.68
10008;BME280;5043;41.766;26.204;2023-05-23T07:43:05;100585.94;;;19.86;94.63
10008;BME280;5043;41.766;26.204;2023-05-23T07:45:31;100647.69;;;20.40;92.94
10008;BME280;5043;41.766;26.204;2023-05-23T07:47:57;100659.13;;;20.34;92.91
10008;BME280;5043;41.766;26.204;2023-05-23T07:50:24;100650.00;;;20.51;92.64
10008;BME280;5043;41.766;26.204;2023-05-23T07:52:52;100673.63;;;20.78;92.21
10008;BME280;5043;41.766;26.204;2023-05-23T07:55:19;100663.41;;;20.82;91.63
10008;BME280;5043;41.766;26.204;2023-05-23T07:57:45;100657.97;;;20.67;91.25
10008;BME280;5043;41.766;26.204;2023-05-23T08:00:11;100649.31;;;20.80;91.19
10008;BME280;5043;41.766;26.204;2023-05-23T08:02:37;100676.44;;;20.85;91.11
10008;BME280;5043;41.766;26.204;2023-05-23T08:05:03;100647.13;;;20.83;91.50
10008;BME280;5043;41.766;26.204;2023-05-23T08:07:28;100657.63;;;20.93;90.21
10008;BME280;5043;41.766;26.204;2023-05-23T08:09:54;100599.53;;;20.77;90.17
10008;BME280;5043;41.766;26.204;2023-05-23T08:12:19;100661.94;;;21.24;89.78
10008;BME280;5043;41.766;26.204;2023-05-23T08:14:45;100659.09;;;21.26;90.66
10008;BME280;5043;41.766;26.204;2023-05-23T08:17:12;100657.84;;;21.14;90.15
10008;BME280;5043;41.766;26.204;2023-05-23T08:19:37;100671.38;;;21.20;89.62
10008;BME280;5043;41.766;26.204;2023-05-23T08:22:03;100658.84;;;21.13;90.16
10008;BME280;5043;41.766;26.204;2023-05-23T08:24:29;100654.31;;;21.13;90.42
10008;BME280;5043;41.766;26.204;2023-05-23T08:26:55;100559.56;;;20.90;89.15
10008;BME280;5043;41.766;26.204;2023-05-23T08:29:21;100652.94;;;21.55;88.36
10008;BME280;5043;41.766;26.204;2023-05-23T08:31:47;100654.09;;;21.75;86.73
10008;BME280;5043;41.766;26.204;2023-05-23T08:34:13;100652.53;;;21.66;86.92
10008;BME280;5043;41.766;26.204;2023-05-23T08:36:39;100649.75;;;21.74;87.73
10008;BME280;5043;41.766;26.204;2023-05-23T08:39:04;100665.25;;;21.86;86.33
10008;BME280;5043;41.766;26.204;2023-05-23T08:41:30;100647.47;;;21.85;86.02
10008;BME280;5043;41.766;26.204;2023-05-23T08:43:56;100667.69;;;21.96;86.85
10008;BME280;5043;41.766;26.204;2023-05-23T08:46:22;100654.97;;;22.05;85.46
10008;BME280;5043;41.766;26.204;2023-05-23T08:48:51;100604.28;;;21.72;85.40
10008;BME280;5043;41.766;26.204;2023-05-23T08:51:18;100656.00;;;22.18;84.76
10008;BME280;5043;41.766;26.204;2023-05-23T08:53:46;100657.94;;;22.39;84.25
10008;BME280;5043;41.766;26.204;2023-05-23T08:56:13;100672.75;;;22.49;82.43
10008;BME280;5043;41.766;26.204;2023-05-23T08:58:40;100661.22;;;22.55;81.71
10008;BME280;5043;41.766;26.204;2023-05-23T09:01:09;100665.69;;;22.48;82.69
10008;BME280;5043;41.766;26.204;2023-05-23T09:03:36;100660.38;;;22.70;82.15
10008;BME280;5043;41.766;26.204;2023-05-23T09:06:04;100665.56;;;22.86;80.17
10008;BME280;5043;41.766;26.204;2023-05-23T09:08:30;100638.66;;;22.86;78.34
10008;BME280;5043;41.766;26.204;2023-05-23T09:10:56;100617.25;;;22.78;77.45
10008;BME280;5043;41.766;26.204;2023-05-23T09:13:22;100627.31;;;23.11;77.08
10008;BME280;5043;41.766;26.204;2023-05-23T09:16:08;100600.53;;;23.31;73.89
10008;BME280;5043;41.766;26.204;2023-05-23T09:18:38;100635.28;;;24.03;72.65
10008;BME280;5043;41.766;26.204;2023-05-23T09:21:04;100638.50;;;24.19;71.44
10008;BME280;5043;41.766;26.204;2023-05-23T09:23:35;100647.25;;;24.28;68.80
10008;BME280;5043;41.766;26.204;2023-05-23T09:26:05;100639.13;;;24.15;68.49
10008;BME280;5043;41.766;26.204;2023-05-23T09:28:37;100620.88;;;23.89;68.20
10008;BME280;5043;41.766;26.204;2023-05-23T09:31:04;100632.91;;;23.86;69.11
10008;BME280;5043;41.766;26.204;2023-05-23T09:33:47;100549.00;;;23.06;69.69
10008;BME280;5043;41.766;26.204;2023-05-23T09:36:13;100638.56;;;23.43;70.57
10008;BME280;5043;41.766;26.204;2023-05-23T09:38:41;100634.56;;;23.11;71.38
10008;BME280;5043;41.766;26.204;2023-05-23T09:41:07;100632.44;;;23.49;70.58
10008;BME280;5043;41.766;26.204;2023-05-23T09:43:37;100614.16;;;23.44;70.20
10008;BME280;5043;41.766;26.204;2023-05-23T09:46:09;100613.78;;;23.81;69.30
10008;BME280;5043;41.766;26.204;2023-05-23T09:48:34;100615.28;;;23.90;67.60
10008;BME280;5043;41.766;26.204;2023-05-23T09:51:12;100609.44;;;24.15;66.30
10008;BME280;5043;41.766;26.204;2023-05-23T09:53:37;100567.09;;;24.09;61.54
10008;BME280;5043;41.766;26.204;2023-05-23T09:56:03;100605.78;;;24.29;61.45
10008;BME280;5043;41.766;26.204;2023-05-23T09:58:28;100611.34;;;24.21;61.86
10008;BME280;5043;41.766;26.204;2023-05-23T10:00:56;100599.59;;;24.01;63.30
10008;BME280;5043;41.766;26.204;2023-05-23T10:03:52;100602.22;;;23.87;64.56
10008;BME280;5043;41.766;26.204;2023-05-23T10:06:49;100604.03;;;23.80;66.85
10008;BME280;5043;41.766;26.204;2023-05-23T10:09:16;100600.56;;;23.86;64.36
10008;BME280;5043;41.766;26.204;2023-05-23T10:14:13;100595.28;;;24.06;62.88
10008;BME280;5043;41.766;26.204;2023-05-23T10:17:06;100605.91;;;24.08;61.97
10008;BME280;5043;41.766;26.204;2023-05-23T10:22:17;100618.63;;;23.92;65.83
10008;BME280;5043;41.766;26.204;2023-05-23T10:24:47;100587.97;;;23.66;66.08
10008;BME280;5043;41.766;26.204;2023-05-23T10:27:13;100588.75;;;23.53;66.85
10008;BME280;5043;41.766;26.204;2023-05-23T10:29:39;100545.44;;;23.27;66.36
10008;BME280;5043;41.766;26.204;2023-05-23T10:32:05;100613.69;;;23.68;64.21
10008;BME280;5043;41.766;26.204;2023-05-23T10:37:03;100596.53;;;23.76;65.34
10008;BME280;5043;41.766;26.204;2023-05-23T10:44:52;100611.69;;;24.11;63.55
10008;BME280;5043;41.766;26.204;2023-05-23T10:47:35;100621.69;;;24.17;64.01
10008;BME280;5043;41.766;26.204;2023-05-23T10:50:01;100602.78;;;24.11;65.00
10008;BME280;5043;41.766;26.204;2023-05-23T10:52:38;100516.06;;;23.66;64.31
10008;BME280;5043;41.766;26.204;2023-05-23T10:55:12;100603.63;;;24.18;65.15
10008;BME280;5043;41.766;26.204;2023-05-23T10:57:38;100613.63;;;24.24;64.56
10008;BME280;5043;41.766;26.204;2023-05-23T11:00:04;100569.25;;;23.85;65.70
10008;BME280;5043;41.766;26.204;2023-05-23T11:02:30;100623.13;;;24.20;66.76
10008;BME280;5043;41.766;26.204;2023-05-23T11:07:39;100604.09;;;24.28;66.20
10008;BME280;5043;41.766;26.204;2023-05-23T11:10:12;100613.00;;;24.22;66.43
10008;BME280;5043;41.766;26.204;2023-05-23T11:12:42;100624.44;;;24.24;68.04
10008;BME280;5043;41.766;26.204;2023-05-23T11:17:53;100625.34;;;23.75;76.43
10008;BME280;5043;41.766;26.204;2023-05-23T11:20:20;100620.50;;;23.64;79.26
10008;BME280;5043;41.766;26.204;2023-05-23T11:23:00;100580.19;;;23.22;77.96
10008;BME280;5043;41.766;26.204;2023-05-23T11:25:40;100633.16;;;23.36;78.92
10008;BME280;5043;41.766;26.204;2023-05-23T11:28:06;100618.88;;;23.42;78.64
10008;BME280;5043;41.766;26.204;2023-05-23T11:30:34;100640.69;;;23.47;77.43
10008;BME280;5043;41.766;26.204;2023-05-23T11:33:08;100624.78;;;23.52;77.61
10008;BME280;5043;41.766;26.204;2023-05-23T11:35:36;100603.50;;;23.64;78.51
10008;BME280;5043;41.766;26.204;2023-05-23T11:38:03;100599.44;;;23.74;72.77
10008;BME280;5043;41.766;26.204;2023-05-23T11:40:36;100623.44;;;24.04;71.48
10008;BME280;5043;41.766;26.204;2023-05-23T11:43:07;100616.09;;;24.19;73.33
10008;BME280;5043;41.766;26.204;2023-05-23T11:45:35;100597.88;;;23.86;73.93
10008;BME280;5043;41.766;26.204;2023-05-23T11:48:19;100596.81;;;23.87;71.42
10008;BME280;5043;41.766;26.204;2023-05-23T11:50:48;100608.94;;;23.70;74.57
10008;BME280;5043;41.766;26.204;2023-05-23T11:53:14;100590.56;;;23.80;74.60
10008;BME280;5043;41.766;26.204;2023-05-23T11:58:14;100607.13;;;23.77;74.24
10008;BME280;5043;41.766;26.204;2023-05-23T12:00:44;100592.59;;;23.72;74.47
10008;BME280;5043;41.766;26.204;2023-05-23T12:03:09;100595.19;;;23.59;73.87
10008;BME280;5043;41.766;26.204;2023-05-23T12:05:36;100597.97;;;23.72;73.12
10008;BME280;5043;41.766;26.204;2023-05-23T12:08:01;100603.00;;;23.81;73.00
10008;BME280;5043;41.766;26.204;2023-05-23T12:10:27;100598.44;;;24.10;71.83
10008;BME280;5043;41.766;26.204;2023-05-23T12:12:53;100595.28;;;24.60;68.85
10008;BME280;5043;41.766;26.204;2023-05-23T12:15:24;100556.47;;;24.61;69.02
10008;BME280;5043;41.766;26.204;2023-05-23T12:17:52;100544.09;;;24.86;67.08
10008;BME280;5043;41.766;26.204;2023-05-23T12:20:20;100580.66;;;25.21;67.23
10008;BME280;5043;41.766;26.204;2023-05-23T12:22:46;100590.63;;;25.21;65.82
10008;BME280;5043;41.766;26.204;2023-05-23T12:25:11;100589.78;;;25.53;66.24
10008;BME280;5043;41.766;26.204;2023-05-23T12:27:39;100583.00;;;26.15;65.30
10008;BME280;5043;41.766;26.204;2023-05-23T12:30:10;100584.78;;;26.72;61.52
10008;BME280;5043;41.766;26.204;2023-05-23T12:32:41;100579.44;;;26.65;58.77
10008;BME280;5043;41.766;26.204;2023-05-23T12:35:08;100501.06;;;26.01;61.22
10008;BME280;5043;41.766;26.204;2023-05-23T12:37:38;100577.00;;;26.50;62.22
10008;BME280;5043;41.766;26.204;2023-05-23T12:40:14;100569.63;;;26.33;64.29
10008;BME280;5043;41.766;26.204;2023-05-23T12:42:51;100561.97;;;26.23;62.27
10008;BME280;5043;41.766;26.204;2023-05-23T12:45:38;100551.47;;;26.71;60.39
10008;BME280;5043;41.766;26.204;2023-05-23T12:48:06;100581.41;;;27.39;56.97
10008;BME280;5043;41.766;26.204;2023-05-23T12:50:33;100605.38;;;27.84;51.27
10008;BME280;5043;41.766;26.204;2023-05-23T12:52:58;100560.69;;;27.87;49.36
10008;BME280;5043;41.766;26.204;2023-05-23T12:55:25;100553.44;;;28.17;49.61
10008;BME280;5043;41.766;26.204;2023-05-23T12:57:51;100561.63;;;27.99;48.32
10008;BME280;5043;41.766;26.204;2023-05-23T13:00:17;100548.22;;;27.98;49.74
10008;BME280;5043;41.766;26.204;2023-05-23T13:02:43;100553.19;;;27.46;53.13
10008;BME280;5043;41.766;26.204;2023-05-23T13:05:09;100536.59;;;27.11;55.02
10008;BME280;5043;41.766;26.204;2023-05-23T13:07:34;100505.25;;;26.66;58.77
10008;BME280;5043;41.766;26.204;2023-05-23T13:10:00;100506.38;;;26.27;63.08